Flight Track Log - Related Links

Times and Time Zones

All times are in EDT time to prevent confusion due to time zone crossing. See the N95445 flight status page for this flight to view local times or setup timezone preferences in your user account.

Time Position Orientation Groundspeed Altitude Reporting Facility
EDT Latitude Longitude Course Direction KTS MPH feet Rate Location/Type
Tue 05:45:32 PM 41.3683 -82.3844 107° East 103 119 3,500  Level Cleveland Center
Tue 05:46:33 PM 41.3647 -82.3483 98° East 104 120 3,600 49 Climbing Cleveland Center
Tue 05:47:34 PM 41.3569 -82.3067 104° East 107 123 3,600 47 Level Cleveland Center
Tue 05:48:40 PM 41.3431 -82.2675 115° Southeast 103 119 3,700  Climbing Cleveland Center
Tue 05:49:41 PM 41.3247 -82.2422 134° Southeast 96 110 3,600 -98 Descending Cleveland Center
Tue 05:50:00 PM 41.2831 -81.9844 106° East  Level Estimated
Tue 05:50:42 PM 41.3064 -82.2111 128° Southeast 98 113 3,500  Level Cleveland Center
Tue 05:51:00 PM 41.2731 -81.9407 107° East  Level Estimated
Tue 05:51:43 PM 41.2922 -82.1806 122° Southeast 100 115 3,600  Level Cleveland Center
Tue 05:52:44 PM 41.2800 -82.1469 116° Southeast 101 116 3,500  Descending Cleveland Center
Tue 05:53:45 PM 41.2703 -82.1108 110° East 100 115 3,600  Climbing Cleveland Center
Tue 05:54:58 PM 41.2539 -82.0719 119° Southeast 105 121 3,500  Descending Cleveland Center
Tue 05:55:41 PM 41.2458 -82.0494 115° Southeast 99 114 3,600 50 Climbing Cleveland Center
Tue 05:56:59 PM 41.2278 -82.0050 118° Southeast 105 121 3,600 -43 Level Cleveland Center
Tue 05:58:00 PM 41.2219 -81.9661 101° East 105 121 3,500 -52 Descending Cleveland Center
Tue 05:58:55 PM 41.2142 -81.9328 107° East 104 120 3,500  Level Cleveland Center
Tue 05:59:50 PM 41.2081 -81.9025 105° East 99 114 3,500  Level Cleveland Center
Tue 06:00:57 PM 41.1961 -81.8608 111° Southeast 101 116 3,500  Level Cleveland Center
Tue 06:01:58 PM 41.1903 -81.8275 103° East 99 114 3,500  Level Cleveland Center
Tue 06:02:52 PM 41.1864 -81.7944 99° East 100 115 3,500  Level Cleveland Center
Tue 06:03:59 PM 41.1869 -81.7531 89° East 104 120 3,500 -47 Level Cleveland Center
Tue 06:05:00 PM 41.1872 -81.7117 89° East 105 121 3,400 -98 Descending Cleveland Center
Tue 06:06:00 PM 41.1832 -81.6663 114° Southeast  Level FlightAware

Login

Don't have an account? Register now (free) for customized features, flight alerts, and more!